Time;durP1;ratioP1;P1;durP2;ratioP2;P2;SDS_P1;SDS_P2;PMS_P1;PMS_P2;Temp;Humidity;BMP_temperature;BMP_pressure;BME280_temperature;BME280_humidity;BME280_pressure;Samples;Min_cycle;Max_cycle;Signal;HPM_P1;HPM_P2
2021/01/26 00:03:51;;;;;;;0.20;0.10;;;9.80;99.90;;;;;;20374046;29;20225;-76
2021/01/26 00:13:53;;;;;;;0.40;0.20;;;9.80;99.90;;;;;;20370178;29;20228;-73
2021/01/26 00:23:57;;;;;;;0.20;0.10;;;9.90;99.90;;;;;;20373188;29;20829;-76
2021/01/26 00:33:59;;;;;;;4.83;0.43;;;9.90;99.90;;;;;;20366042;29;20236;-75
2021/01/26 00:44:03;;;;;;;0.20;0.13;;;9.80;99.90;;;;;;20371491;29;20221;-77
2021/01/26 00:54:06;;;;;;;0.20;0.10;;;9.80;99.90;;;;;;20367611;29;20262;-74
2021/01/26 01:04:10;;;;;;;0.80;0.37;;;9.80;99.90;;;;;;20557526;23;20674;-74
2021/01/26 01:14:13;;;;;;;0.23;0.13;;;10.20;99.90;;;;;;20688813;28;20250;-73
2021/01/26 01:24:17;;;;;;;0.20;0.13;;;10.20;99.90;;;;;;20691308;28;20199;-70
2021/01/26 01:34:23;;;;;;;0.93;0.30;;;10.20;99.90;;;;;;20707190;28;20762;-72
2021/01/26 01:44:26;;;;;;;0.77;0.30;;;10.20;99.90;;;;;;20715302;28;20218;-74
2021/01/26 01:54:33;;;;;;;0.60;0.40;;;10.00;99.90;;;;;;20709538;28;20257;-75
2021/01/26 02:04:37;;;;;;;0.20;0.17;;;10.00;99.90;;;;;;20706115;28;20306;-72
2021/01/26 02:14:44;;;;;;;0.20;0.10;;;9.80;99.90;;;;;;20703137;28;20576;-72
2021/01/26 02:25:35;;;;;;;0.20;0.10;;;9.60;99.90;;;;;;20700980;28;20626;-73
2021/01/26 02:36:02;;;;;;;0.20;0.10;;;9.20;99.90;;;;;;20701676;28;20308;-74
2021/01/26 02:46:15;;;;;;;0.40;0.40;;;9.10;99.90;;;;;;20699515;28;20191;-73
2021/01/26 02:56:25;;;;;;;0.20;0.17;;;9.20;99.90;;;;;;20705300;28;20280;-73
2021/01/26 03:06:32;;;;;;;0.20;0.20;;;9.30;99.90;;;;;;20721173;28;20245;-73
2021/01/26 03:16:36;;;;;;;0.33;0.20;;;9.80;99.90;;;;;;20704193;28;20250;-73
2021/01/26 03:26:41;;;;;;;0.53;0.30;;;9.70;99.90;;;;;;20698607;28;20198;-74
2021/01/26 03:36:44;;;;;;;0.20;0.10;;;9.70;99.90;;;;;;20698745;28;21030;-72
2021/01/26 03:47:08;;;;;;;0.20;0.10;;;9.70;99.90;;;;;;20694081;28;20711;-72
2021/01/26 03:57:29;;;;;;;0.20;0.10;;;9.80;99.90;;;;;;20611607;28;20214;-72
2021/01/26 04:07:40;;;;;;;1.03;0.30;;;9.60;99.90;;;;;;20613611;28;20243;-72
2021/01/26 04:17:50;;;;;;;0.20;0.10;;;9.60;99.90;;;;;;20595310;28;20238;-71
2021/01/26 04:27:54;;;;;;;1.37;0.30;;;9.40;99.90;;;;;;20613654;28;20202;-73
2021/01/26 04:37:58;;;;;;;0.20;0.20;;;9.00;99.90;;;;;;20595594;28;20240;-73
2021/01/26 04:48:07;;;;;;;1.73;0.40;;;8.40;99.90;;;;;;20622905;28;20298;-74
2021/01/26 04:58:23;;;;;;;0.20;0.20;;;8.50;99.90;;;;;;20691519;28;20242;-70
2021/01/26 05:08:30;;;;;;;0.20;0.10;;;8.50;99.90;;;;;;20695384;28;20394;-71
2021/01/26 05:18:39;;;;;;;0.20;0.17;;;8.70;99.90;;;;;;20702456;28;20320;-71
2021/01/26 05:28:45;;;;;;;0.97;0.77;;;8.80;99.90;;;;;;20688995;28;20187;-71
2021/01/26 05:38:51;;;;;;;0.43;0.43;;;8.90;99.90;;;;;;20699325;28;20222;-72
2021/01/26 05:48:55;;;;;;;0.20;0.10;;;9.00;99.90;;;;;;20703948;28;20242;-71
2021/01/26 05:59:18;;;;;;;0.20;0.10;;;9.10;99.90;;;;;;20701539;28;20242;-71
2021/01/26 06:09:40;;;;;;;0.20;0.10;;;9.30;99.90;;;;;;20701398;28;20222;-71
2021/01/26 06:19:43;;;;;;;0.20;0.20;;;9.30;99.90;;;;;;20700920;28;20226;-73
2021/01/26 06:29:53;;;;;;;0.20;0.07;;;9.30;99.90;;;;;;22296565;23;20346;-77
2021/01/26 06:40:28;;;;;;;0.27;0.20;;;9.10;99.90;;;;;;20612307;28;20231;-77
2021/01/26 06:50:59;;;;;;;0.30;0.30;;;9.10;99.90;;;;;;20564712;28;20208;-75
2021/01/26 07:01:28;;;;;;;0.20;0.20;;;9.30;99.90;;;;;;20613896;28;20224;-77
2021/01/26 07:12:08;;;;;;;0.50;0.30;;;9.40;99.90;;;;;;20589446;28;20204;-77
2021/01/26 07:22:41;;;;;;;0.20;0.10;;;9.80;99.90;;;;;;20517927;28;20674;-75
2021/01/26 07:32:56;;;;;;;0.63;0.30;;;9.80;99.90;;;;;;20602430;23;20254;-73
2021/01/26 07:43:17;;;;;;;4.90;0.83;;;9.90;99.90;;;;;;20608775;28;20634;-69
2021/01/26 07:53:43;;;;;;;1.07;0.40;;;10.20;99.90;;;;;;20618373;28;20243;-72
2021/01/26 08:03:46;;;;;;;1.43;0.87;;;10.30;99.90;;;;;;20607747;28;20195;-73
2021/01/26 08:13:54;;;;;;;3.10;1.80;;;9.80;99.90;;;;;;20607264;28;20231;-71
2021/01/26 08:24:12;;;;;;;31.17;1.30;;;9.50;99.90;;;;;;20610351;28;20223;-69
2021/01/26 08:34:40;;;;;;;0.73;0.73;;;9.70;99.90;;;;;;20627698;23;20703;-70
2021/01/26 08:44:47;;;;;;;0.53;0.53;;;9.30;99.90;;;;;;20560479;28;20360;-72
2021/01/26 08:54:53;;;;;;;1.37;0.67;;;9.10;99.90;;;;;;20599840;28;20219;-71
2021/01/26 09:04:56;;;;;;;0.40;0.40;;;9.60;99.90;;;;;;20625210;28;20568;-70
2021/01/26 09:15:08;;;;;;;1.03;0.93;;;9.90;99.90;;;;;;20621180;28;20233;-71
2021/01/26 09:35:29;;;;;;;2.73;2.10;;;9.90;99.90;;;;;;20459905;28;20262;-68
2021/01/26 09:45:32;;;;;;;1.17;1.07;;;10.20;99.90;;;;;;20447324;28;20201;-69
2021/01/26 09:55:38;;;;;;;1.10;1.03;;;10.90;99.90;;;;;;20446931;29;20238;-69
2021/01/26 10:05:41;;;;;;;0.50;0.50;;;11.20;99.90;;;;;;20456564;28;20666;-68
2021/01/26 10:15:45;;;;;;;1.27;0.90;;;11.30;99.90;;;;;;20456888;28;20307;-68
2021/01/26 10:25:48;;;;;;;0.87;0.83;;;11.30;99.90;;;;;;20431353;28;20312;-65
2021/01/26 10:35:51;;;;;;;1.07;0.80;;;12.20;99.90;;;;;;20449675;28;20311;-69
2021/01/26 10:45:54;;;;;;;0.80;0.60;;;12.30;99.90;;;;;;20449570;28;20193;-67
2021/01/26 10:56:01;;;;;;;1.23;0.83;;;12.10;99.90;;;;;;20450254;28;20236;-68
2021/01/26 11:06:04;;;;;;;1.13;0.97;;;12.20;99.90;;;;;;20452365;29;20208;-68
2021/01/26 11:16:08;;;;;;;0.60;0.60;;;12.00;99.90;;;;;;20451554;28;20240;-68
2021/01/26 11:26:14;;;;;;;0.30;0.20;;;14.00;99.90;;;;;;20447280;29;20319;-68
2021/01/26 11:36:18;;;;;;;0.20;0.13;;;14.80;99.90;;;;;;20451588;28;20323;-66
2021/01/26 11:46:20;;;;;;;0.23;0.13;;;15.30;99.90;;;;;;20448810;29;20294;-69
2021/01/26 11:56:24;;;;;;;0.83;0.73;;;14.30;99.90;;;;;;20448675;29;20355;-69
2021/01/26 12:06:27;;;;;;;0.20;0.10;;;14.10;99.90;;;;;;20448721;28;20208;-68
2021/01/26 12:16:30;;;;;;;0.57;0.57;;;15.50;99.90;;;;;;20448936;29;20310;-67
2021/01/26 12:26:34;;;;;;;0.60;0.43;;;15.80;99.90;;;;;;20459016;23;20656;-71
2021/01/26 12:36:38;;;;;;;0.50;0.50;;;16.40;99.90;;;;;;20538782;28;20223;-72
2021/01/26 12:46:41;;;;;;;0.30;0.30;;;16.80;99.90;;;;;;20539197;28;20955;-70
2021/01/26 12:56:45;;;;;;;0.83;0.60;;;17.20;99.90;;;;;;20540282;28;20567;-70
2021/01/26 13:06:47;;;;;;;1.17;0.87;;;17.20;99.90;;;;;;20537769;28;20295;-71
2021/01/26 13:16:51;;;;;;;0.30;0.27;;;17.20;99.90;;;;;;20537637;28;20315;-69
2021/01/26 13:26:54;;;;;;;0.30;0.30;;;17.60;99.90;;;;;;20560301;23;20242;-67
2021/01/26 13:36:58;;;;;;;0.40;0.30;;;17.40;99.90;;;;;;20613553;28;20267;-66
2021/01/26 13:47:01;;;;;;;0.23;0.23;;;17.60;99.90;;;;;;20616780;28;20285;-66
2021/01/26 13:57:05;;;;;;;0.97;0.93;;;17.90;99.90;;;;;;20617916;28;20525;-67
2021/01/26 14:07:08;;;;;;;0.77;0.20;;;18.50;99.90;;;;;;20613369;28;20274;-67
2021/01/26 14:17:11;;;;;;;0.20;0.10;;;18.00;99.90;;;;;;20614788;28;20231;-65
2021/01/26 14:27:14;;;;;;;0.20;0.20;;;17.90;99.90;;;;;;20602102;28;20232;-66
2021/01/26 14:37:19;;;;;;;0.63;0.50;;;17.70;99.90;;;;;;20627143;28;20230;-68
2021/01/26 14:47:25;;;;;;;0.30;0.30;;;17.70;99.90;;;;;;20586293;28;20188;-67
2021/01/26 14:57:29;;;;;;;0.20;0.10;;;16.90;99.90;;;;;;20612557;28;20370;-65
2021/01/26 15:07:34;;;;;;;0.70;0.70;;;17.00;99.90;;;;;;20609580;28;20200;-64
2021/01/26 15:17:38;;;;;;;11.63;0.60;;;15.50;99.90;;;;;;20613135;28;20364;-66
2021/01/26 15:27:41;;;;;;;0.27;0.20;;;15.30;99.90;;;;;;20601694;23;20254;-72
2021/01/26 15:37:47;;;;;;;0.20;0.20;;;14.60;99.90;;;;;;20564784;28;20227;-72
2021/01/26 15:47:51;;;;;;;0.20;0.10;;;13.90;99.90;;;;;;20523512;28;20720;-72
2021/01/26 15:57:55;;;;;;;0.80;0.37;;;15.50;99.90;;;;;;20524412;28;20669;-72
2021/01/26 16:07:57;;;;;;;0.20;0.10;;;15.70;99.90;;;;;;20507428;28;20452;-72
2021/01/26 16:18:02;;;;;;;0.70;0.43;;;14.80;99.90;;;;;;20521535;28;20224;-72
2021/01/26 16:28:05;;;;;;;1.07;0.90;;;14.00;99.90;;;;;;20543392;23;20246;-67
2021/01/26 16:38:09;;;;;;;0.20;0.10;;;13.50;99.90;;;;;;20533072;28;20733;-67
2021/01/26 16:48:13;;;;;;;0.20;0.20;;;12.80;99.90;;;;;;20528219;28;20582;-67
2021/01/26 16:58:17;;;;;;;0.20;0.10;;;12.40;99.90;;;;;;20524790;28;20224;-67
2021/01/26 17:08:23;;;;;;;0.20;0.10;;;12.20;99.90;;;;;;20522798;28;20283;-68
2021/01/26 17:18:27;;;;;;;6.87;0.87;;;12.20;99.90;;;;;;20534802;28;20315;-68
2021/01/26 17:28:32;;;;;;;0.40;0.30;;;12.20;99.90;;;;;;20575870;23;20305;-68
2021/01/26 17:38:43;;;;;;;4.80;1.40;;;12.30;99.90;;;;;;20612866;28;20265;-71
2021/01/26 17:48:49;;;;;;;0.53;0.53;;;12.10;99.90;;;;;;20616385;28;20231;-72
2021/01/26 17:58:52;;;;;;;0.67;0.47;;;11.70;99.90;;;;;;20618041;28;20314;-72
2021/01/26 18:08:55;;;;;;;1.40;1.30;;;11.40;99.90;;;;;;20614232;28;20790;-72
2021/01/26 18:19:01;;;;;;;1.43;1.27;;;11.10;99.90;;;;;;20607048;28;20223;-73
2021/01/26 18:29:04;;;;;;;4.20;1.33;;;10.90;99.90;;;;;;20612253;28;20692;-73
2021/01/26 18:39:09;;;;;;;3.70;0.67;;;10.70;99.90;;;;;;20610525;28;20222;-70
2021/01/26 18:49:12;;;;;;;1.63;1.07;;;10.50;99.90;;;;;;20606855;28;20272;-71
2021/01/26 18:59:16;;;;;;;2.93;2.20;;;11.10;99.90;;;;;;20610759;28;20578;-74
2021/01/26 19:09:19;;;;;;;2.20;1.23;;;11.00;99.90;;;;;;20608325;28;20196;-69
2021/01/26 19:19:23;;;;;;;1.47;1.40;;;10.70;99.90;;;;;;20609566;28;20647;-72
2021/01/26 19:29:26;;;;;;;1.57;0.87;;;10.70;99.90;;;;;;20606888;28;20223;-71
2021/01/26 19:39:31;;;;;;;0.73;0.50;;;10.20;99.90;;;;;;20607700;28;20231;-70
2021/01/26 19:49:35;;;;;;;0.90;0.90;;;10.20;99.90;;;;;;20607382;28;20590;-70
2021/01/26 19:59:44;;;;;;;5.77;1.40;;;10.50;99.90;;;;;;20604690;28;20223;-72
2021/01/26 20:09:47;;;;;;;0.60;0.50;;;10.30;99.90;;;;;;20605729;28;20381;-72
2021/01/26 20:19:51;;;;;;;1.90;1.00;;;10.40;99.90;;;;;;20608531;28;20585;-72
2021/01/26 20:29:55;;;;;;;0.80;0.70;;;10.70;99.90;;;;;;20607703;28;20696;-73
2021/01/26 20:39:59;;;;;;;1.03;1.03;;;10.90;99.90;;;;;;20557221;28;20783;-71
2021/01/26 20:50:01;;;;;;;3.70;1.10;;;11.00;99.90;;;;;;20603420;28;20191;-71
2021/01/26 21:00:07;;;;;;;0.73;0.73;;;10.90;99.90;;;;;;20622750;28;20228;-71
2021/01/26 21:10:11;;;;;;;1.33;0.87;;;10.80;99.90;;;;;;20621592;28;20196;-71
2021/01/26 21:20:17;;;;;;;1.77;0.83;;;10.70;99.90;;;;;;20619335;28;20276;-72
2021/01/26 21:30:22;;;;;;;1.47;0.57;;;10.60;99.90;;;;;;20631451;23;20723;-78
2021/01/26 21:40:28;;;;;;;1.73;0.90;;;10.20;99.90;;;;;;20617956;28;20235;-81
2021/01/26 21:50:36;;;;;;;1.50;0.93;;;9.70;99.90;;;;;;20619265;28;20690;-76
2021/01/26 22:00:39;;;;;;;0.73;0.73;;;9.40;99.90;;;;;;20615116;28;20598;-78
2021/01/26 22:10:47;;;;;;;0.30;0.30;;;9.20;99.90;;;;;;20617844;28;20326;-80
2021/01/26 22:20:56;;;;;;;0.50;0.50;;;9.20;99.90;;;;;;20617423;28;20672;-80
2021/01/26 22:31:02;;;;;;;0.77;0.77;;;9.20;99.90;;;;;;20641305;23;20238;-73
2021/01/26 22:41:07;;;;;;;0.37;0.37;;;9.10;99.90;;;;;;20537076;28;20532;-73
2021/01/26 22:51:09;;;;;;;1.60;0.60;;;9.10;99.90;;;;;;20568058;28;20207;-74
2021/01/26 23:01:14;;;;;;;0.23;0.23;;;9.10;99.90;;;;;;20613078;28;20490;-74
2021/01/26 23:11:17;;;;;;;0.70;0.30;;;9.00;99.90;;;;;;20610394;28;20201;-73
2021/01/26 23:21:21;;;;;;;0.53;0.50;;;9.00;99.90;;;;;;20611714;28;20564;-73
2021/01/26 23:31:27;;;;;;;0.20;0.20;;;8.80;99.90;;;;;;20623786;23;20678;-69
2021/01/26 23:41:33;;;;;;;0.23;0.20;;;8.90;99.90;;;;;;20613759;28;20582;-68
2021/01/26 23:51:37;;;;;;;0.77;0.77;;;9.20;99.90;;;;;;20610002;28;20222;-68
